Time;durP1;ratioP1;P1;durP2;ratioP2;P2;SDS_P1;SDS_P2;PMS_P1;PMS_P2;Temp;Humidity;BMP_temperature;BMP_pressure;BME280_temperature;BME280_humidity;BME280_pressure;Samples;Min_cycle;Max_cycle;Signal;HPM_P1;HPM_P2
2022/04/10 00:00:55;;;;;;;9.00;1.50;;;2.00;99.90;;;;;;5037930;28;20053;-90
2022/04/10 00:03:22;;;;;;;16.65;2.03;;;1.90;99.90;;;;;;5021528;28;20059;-90
2022/04/10 00:05:48;;;;;;;13.48;1.77;;;1.80;99.90;;;;;;5038165;28;20052;-90
2022/04/10 00:08:14;;;;;;;12.25;1.90;;;1.90;99.90;;;;;;5021462;28;20143;-90
2022/04/10 00:10:39;;;;;;;10.23;2.13;;;1.90;99.90;;;;;;5054483;28;20045;-90
2022/04/10 00:13:05;;;;;;;13.88;1.80;;;2.10;99.90;;;;;;5021327;28;20148;-90
2022/04/10 00:15:31;;;;;;;10.38;1.60;;;1.90;99.90;;;;;;5054219;28;20087;-90
2022/04/10 00:17:57;;;;;;;16.15;2.28;;;1.90;99.90;;;;;;5021694;28;20041;-90
2022/04/10 00:20:22;;;;;;;13.50;1.83;;;2.00;99.90;;;;;;5037851;28;20106;-90
2022/04/10 00:22:49;;;;;;;13.75;2.30;;;2.00;99.90;;;;;;5054355;28;20053;-90
2022/04/10 00:25:16;;;;;;;16.38;2.38;;;2.20;99.90;;;;;;5054468;28;20128;-91
2022/04/10 00:27:42;;;;;;;13.60;2.22;;;2.20;99.90;;;;;;5037679;28;20136;-90
2022/04/10 00:30:13;;;;;;;15.68;2.25;;;2.30;99.90;;;;;;5037782;28;20080;-90
2022/04/10 00:32:40;;;;;;;12.57;1.80;;;2.50;99.90;;;;;;5037660;28;20045;-90
2022/04/10 00:35:06;;;;;;;16.60;2.33;;;2.40;99.90;;;;;;5020467;28;20114;-90
2022/04/10 00:37:33;;;;;;;18.33;1.88;;;2.20;99.90;;;;;;5037518;28;20401;-89
2022/04/10 00:39:59;;;;;;;18.08;2.60;;;2.10;99.90;;;;;;5020338;28;20510;-89
2022/04/10 00:42:40;;;;;;;12.00;1.67;;;2.10;99.90;;;;;;5036735;28;20053;-90
2022/04/10 00:45:07;;;;;;;11.43;2.42;;;2.10;99.90;;;;;;5037453;28;20040;-90
2022/04/10 00:47:33;;;;;;;12.00;1.88;;;2.10;99.90;;;;;;5037321;28;20053;-91
2022/04/10 00:50:02;;;;;;;14.75;2.42;;;2.10;99.90;;;;;;5037385;28;20078;-90
2022/04/10 00:52:29;;;;;;;11.93;2.08;;;2.10;99.90;;;;;;5037227;28;20059;-90
2022/04/10 00:54:55;;;;;;;18.55;2.58;;;2.10;99.90;;;;;;5037477;28;20507;-89
2022/04/10 00:57:21;;;;;;;17.10;2.10;;;2.00;99.90;;;;;;5053357;28;20135;-89
2022/04/10 00:59:46;;;;;;;15.40;2.47;;;2.20;99.90;;;;;;5037164;28;20411;-90
2022/04/10 01:02:13;;;;;;;13.77;2.10;;;2.10;99.90;;;;;;5037241;28;20041;-90
2022/04/10 01:04:39;;;;;;;16.50;2.10;;;2.00;99.90;;;;;;5053476;28;20052;-90
2022/04/10 01:07:05;;;;;;;12.85;2.28;;;2.00;99.90;;;;;;5036900;28;20061;-90
2022/04/10 01:09:32;;;;;;;24.80;2.80;;;1.90;99.90;;;;;;5036847;28;20401;-90
2022/04/10 01:11:59;;;;;;;17.15;2.35;;;2.00;99.90;;;;;;5036688;28;20127;-90
2022/04/10 01:14:25;;;;;;;10.75;2.40;;;2.20;99.90;;;;;;5036770;28;20057;-90
2022/04/10 01:16:51;;;;;;;14.82;2.55;;;2.00;99.90;;;;;;5036892;28;20044;-90
2022/04/10 01:19:18;;;;;;;12.27;2.15;;;2.10;99.90;;;;;;5037129;28;20375;-90
2022/04/10 01:21:46;;;;;;;17.90;2.65;;;2.10;99.90;;;;;;5036808;28;20107;-90
2022/04/10 01:24:12;;;;;;;18.55;2.70;;;2.20;99.90;;;;;;5019925;28;20099;-90
2022/04/10 01:26:38;;;;;;;14.20;2.28;;;2.20;99.90;;;;;;5020384;28;20057;-90
2022/04/10 01:29:05;;;;;;;17.23;2.47;;;2.20;99.90;;;;;;5020149;28;20363;-90
2022/04/10 01:31:34;;;;;;;14.70;2.25;;;2.20;99.90;;;;;;5036557;28;20063;-91
2022/04/10 01:34:03;;;;;;;11.38;2.13;;;2.20;99.90;;;;;;5036282;28;20044;-91
2022/04/10 01:36:30;;;;;;;10.48;2.00;;;2.10;99.90;;;;;;5036280;28;20047;-90
2022/04/10 01:38:58;;;;;;;16.70;2.25;;;2.00;99.90;;;;;;5019663;28;20139;-90
2022/04/10 01:41:25;;;;;;;13.85;2.08;;;1.90;99.90;;;;;;5020128;28;20398;-90
2022/04/10 01:43:52;;;;;;;11.65;2.05;;;1.80;99.90;;;;;;5036534;28;20081;-90
2022/04/10 01:46:19;;;;;;;15.73;2.13;;;1.80;99.90;;;;;;5020259;28;20398;-90
2022/04/10 01:48:45;;;;;;;15.40;2.45;;;1.80;99.90;;;;;;5020044;28;20060;-90
2022/04/10 01:51:11;;;;;;;17.65;2.22;;;1.80;99.90;;;;;;5052996;28;20483;-90
2022/04/10 01:53:37;;;;;;;13.75;2.28;;;1.80;99.90;;;;;;5035831;28;20043;-91
2022/04/10 01:56:04;;;;;;;14.60;2.15;;;1.70;99.90;;;;;;5052783;28;20565;-90
2022/04/10 01:58:31;;;;;;;17.02;2.55;;;1.70;99.90;;;;;;5019149;28;20099;-90
2022/04/10 02:00:57;;;;;;;14.13;2.40;;;1.60;99.90;;;;;;5036076;28;20045;-90
2022/04/10 02:03:23;;;;;;;13.52;2.30;;;1.50;99.90;;;;;;5019267;28;20129;-90
2022/04/10 02:05:49;;;;;;;15.77;2.53;;;1.40;99.90;;;;;;5052503;28;20107;-89
2022/04/10 02:08:14;;;;;;;18.00;2.95;;;1.30;99.90;;;;;;5035335;28;20131;-90
2022/04/10 02:10:40;;;;;;;13.25;2.72;;;1.20;99.90;;;;;;5018926;28;20057;-90
2022/04/10 02:13:09;;;;;;;13.88;2.30;;;1.20;99.90;;;;;;5035907;28;20068;-90
2022/04/10 02:15:36;;;;;;;14.50;2.97;;;1.20;99.90;;;;;;5019545;28;20383;-90
2022/04/10 02:18:02;;;;;;;15.27;2.15;;;1.20;99.90;;;;;;5035762;28;20049;-90
2022/04/10 02:20:28;;;;;;;14.88;2.42;;;1.30;99.90;;;;;;5053014;28;20506;-90
2022/04/10 02:22:54;;;;;;;18.23;2.63;;;1.20;99.90;;;;;;5035275;28;20076;-90
2022/04/10 02:25:19;;;;;;;16.27;2.55;;;1.20;99.90;;;;;;5035888;28;20118;-89
2022/04/10 02:27:45;;;;;;;10.80;2.25;;;1.20;99.90;;;;;;5035186;28;20045;-90
2022/04/10 02:30:12;;;;;;;16.17;2.42;;;1.30;99.90;;;;;;5035695;28;20044;-90
2022/04/10 02:32:39;;;;;;;18.73;2.70;;;1.50;99.90;;;;;;5035532;28;20430;-90
2022/04/10 02:35:05;;;;;;;15.38;2.47;;;1.50;99.90;;;;;;5018835;28;20414;-90
2022/04/10 02:37:31;;;;;;;14.05;2.50;;;1.50;99.90;;;;;;5035092;28;20060;-90
2022/04/10 02:39:56;;;;;;;14.75;2.72;;;1.50;99.90;;;;;;5035269;28;20041;-90
2022/04/10 02:42:22;;;;;;;12.35;2.50;;;1.50;99.90;;;;;;5052453;28;20049;-90
2022/04/10 02:44:47;;;;;;;22.15;2.50;;;1.50;99.90;;;;;;5051807;28;20053;-90
2022/04/10 02:47:13;;;;;;;12.60;2.45;;;1.60;99.90;;;;;;5052028;28;20115;-90
2022/04/10 02:49:39;;;;;;;16.15;2.38;;;1.50;99.90;;;;;;5018762;28;20178;-90
2022/04/10 02:52:05;;;;;;;17.38;2.10;;;1.60;99.90;;;;;;5035289;28;20388;-89
2022/04/10 02:54:30;;;;;;;11.00;2.10;;;1.60;99.90;;;;;;5034638;28;20045;-90
2022/04/10 02:56:56;;;;;;;19.20;2.40;;;1.60;99.90;;;;;;5051318;28;20114;-90
2022/04/10 02:59:22;;;;;;;11.52;2.45;;;1.60;99.90;;;;;;5035146;28;20056;-90
2022/04/10 03:01:50;;;;;;;17.80;2.50;;;1.60;99.90;;;;;;5051865;28;20202;-90
2022/04/10 03:04:17;;;;;;;17.27;2.50;;;1.60;99.90;;;;;;5051710;28;20395;-90
2022/04/10 03:06:42;;;;;;;15.57;2.15;;;1.60;99.90;;;;;;5037988;28;20450;-90
2022/04/10 03:09:08;;;;;;;14.70;2.63;;;1.70;99.90;;;;;;5055712;28;20140;-91
2022/04/10 03:11:34;;;;;;;15.18;2.15;;;1.60;99.90;;;;;;5039488;28;20102;-89
2022/04/10 03:14:00;;;;;;;15.07;2.45;;;1.50;99.90;;;;;;5039409;28;20056;-90
2022/04/10 03:16:25;;;;;;;14.57;2.53;;;1.50;99.90;;;;;;5022302;28;20045;-90
2022/04/10 03:18:51;;;;;;;13.73;2.10;;;1.40;99.90;;;;;;5022841;28;20049;-90
2022/04/10 03:21:18;;;;;;;13.85;2.40;;;1.40;99.90;;;;;;5021901;28;20057;-90
2022/04/10 03:23:44;;;;;;;14.20;2.28;;;1.30;99.90;;;;;;5038716;28;20491;-90
2022/04/10 03:26:09;;;;;;;13.82;2.20;;;1.30;99.90;;;;;;5038979;28;20406;-90
2022/04/10 03:28:35;;;;;;;25.63;3.03;;;1.30;99.90;;;;;;5022371;28;20402;-90
2022/04/10 03:31:00;;;;;;;12.77;2.60;;;1.40;99.90;;;;;;5038932;28;20409;-90
2022/04/10 03:33:26;;;;;;;11.05;2.30;;;1.40;99.90;;;;;;5022263;28;20068;-89
2022/04/10 03:35:55;;;;;;;18.38;2.33;;;1.50;99.90;;;;;;5038485;28;20051;-90
2022/04/10 03:38:21;;;;;;;17.17;2.55;;;1.60;99.90;;;;;;5038366;28;20407;-90
2022/04/10 03:40:48;;;;;;;10.38;2.28;;;1.70;99.90;;;;;;5038399;28;20148;-89
2022/04/10 03:43:14;;;;;;;13.02;1.83;;;1.90;99.90;;;;;;5038786;28;20095;-90
2022/04/10 03:45:40;;;;;;;17.63;2.10;;;2.00;99.90;;;;;;5055149;28;20056;-90
2022/04/10 03:48:06;;;;;;;16.90;2.58;;;2.10;99.90;;;;;;5022225;28;20088;-90
2022/04/10 03:50:33;;;;;;;12.57;2.70;;;2.10;99.90;;;;;;5038274;28;20049;-90
2022/04/10 03:53:00;;;;;;;14.95;2.40;;;2.10;99.90;;;;;;5054857;28;20045;-90
2022/04/10 03:55:26;;;;;;;18.58;2.65;;;2.00;99.90;;;;;;5037986;28;20087;-90
2022/04/10 03:57:52;;;;;;;11.27;2.28;;;2.00;99.90;;;;;;5021003;28;20422;-90
2022/04/10 04:00:18;;;;;;;14.25;2.60;;;2.00;99.90;;;;;;5038554;28;20057;-89
2022/04/10 04:02:45;;;;;;;11.60;1.83;;;2.00;99.90;;;;;;5038624;28;20060;-90
2022/04/10 04:05:11;;;;;;;19.95;2.40;;;2.10;99.90;;;;;;5038028;28;20037;-91
2022/04/10 04:07:38;;;;;;;14.18;2.03;;;2.40;99.90;;;;;;5038138;28;20053;-90
2022/04/10 04:10:05;;;;;;;12.27;2.00;;;2.30;99.90;;;;;;5054440;28;20048;-90
2022/04/10 04:12:31;;;;;;;13.85;2.17;;;2.40;99.90;;;;;;5038438;28;20052;-93
2022/04/10 04:14:57;;;;;;;5.75;2.15;;;2.50;99.90;;;;;;5021946;28;20041;-89
2022/04/10 04:17:22;;;;;;;9.88;1.67;;;2.60;99.90;;;;;;5036764;28;20164;-92
2022/04/10 04:19:50;;;;;;;7.90;1.65;;;2.60;99.90;;;;;;5021952;28;20483;-92
2022/04/10 04:22:18;;;;;;;12.65;1.70;;;2.50;99.90;;;;;;5021773;28;20088;-92
2022/04/10 04:24:44;;;;;;;14.40;2.35;;;2.50;99.90;;;;;;5021930;28;20136;-92
2022/04/10 04:27:10;;;;;;;10.73;2.47;;;2.50;99.90;;;;;;5055377;28;20168;-92
2022/04/10 04:29:36;;;;;;;10.80;2.03;;;2.40;99.90;;;;;;5022146;28;20486;-93
2022/04/10 04:32:03;;;;;;;10.75;2.00;;;2.40;99.90;;;;;;5021566;28;20481;-92
2022/04/10 04:34:28;;;;;;;8.95;1.65;;;2.30;99.90;;;;;;5038090;28;20052;-92
2022/04/10 04:36:54;;;;;;;15.23;2.65;;;2.30;99.90;;;;;;5054439;28;20088;-91
2022/04/10 04:39:20;;;;;;;10.23;2.08;;;2.30;99.90;;;;;;5038052;28;20041;-91
2022/04/10 04:41:46;;;;;;;14.80;2.50;;;2.30;99.90;;;;;;5020840;28;20059;-90
2022/04/10 04:44:12;;;;;;;13.25;1.95;;;2.30;99.90;;;;;;5054835;28;20486;-92
2022/04/10 04:46:37;;;;;;;10.40;1.90;;;2.30;99.90;;;;;;5021448;28;20080;-92
2022/04/10 04:49:04;;;;;;;7.25;1.20;;;2.30;99.90;;;;;;5054455;28;20090;-93
2022/04/10 04:51:34;;;;;;;12.55;1.83;;;2.30;99.90;;;;;;5037634;28;20436;-93
2022/04/10 04:54:01;;;;;;;16.02;2.70;;;2.50;99.90;;;;;;5020910;28;20063;-93
2022/04/10 04:56:26;;;;;;;9.57;1.80;;;2.60;99.90;;;;;;5021172;28;20138;-92
2022/04/10 04:58:52;;;;;;;6.30;1.10;;;2.40;99.90;;;;;;5037966;28;20120;-92
2022/04/10 05:01:18;;;;;;;9.85;1.60;;;2.50;99.90;;;;;;5021368;28;20056;-90
2022/04/10 05:03:43;;;;;;;5.93;1.25;;;2.30;99.90;;;;;;5037633;28;20056;-92
2022/04/10 05:06:09;;;;;;;10.02;1.70;;;2.20;99.90;;;;;;5020949;28;20091;-92
2022/04/10 05:08:34;;;;;;;8.98;1.70;;;2.30;99.90;;;;;;5020832;28;20041;-93
2022/04/10 05:11:00;;;;;;;8.48;1.85;;;2.40;99.90;;;;;;5054017;28;20041;-92
2022/04/10 05:13:27;;;;;;;7.45;1.38;;;2.40;99.90;;;;;;5054262;28;20053;-92
2022/04/10 05:15:53;;;;;;;6.47;1.33;;;2.50;99.90;;;;;;5037564;28;20045;-92
2022/04/10 05:18:19;;;;;;;5.63;1.10;;;2.70;99.90;;;;;;5020757;28;20094;-90
2022/04/10 05:20:46;;;;;;;3.00;1.20;;;2.80;99.90;;;;;;5037323;28;20076;-91
2022/04/10 05:23:16;;;;;;;5.80;1.30;;;2.90;99.90;;;;;;5037353;28;20098;-92
2022/04/10 05:25:42;;;;;;;4.68;1.02;;;3.00;99.90;;;;;;5020626;28;20041;-89
2022/04/10 05:28:08;;;;;;;4.10;1.00;;;3.10;99.90;;;;;;5037265;28;20124;-92
2022/04/10 05:30:33;;;;;;;3.88;1.10;;;3.10;99.90;;;;;;5020547;28;20052;-93
2022/04/10 05:33:00;;;;;;;4.25;1.30;;;3.10;99.90;;;;;;5020731;28;20402;-93
2022/04/10 05:35:25;;;;;;;3.35;1.00;;;3.00;99.90;;;;;;5053620;28;20195;-93
2022/04/10 05:37:51;;;;;;;5.97;0.95;;;3.20;99.90;;;;;;5037094;28;20507;-92
2022/04/10 05:40:17;;;;;;;5.22;0.80;;;3.10;99.90;;;;;;5036457;28;20037;-92
2022/04/10 05:42:46;;;;;;;5.57;1.00;;;3.00;99.90;;;;;;5037175;28;20067;-93
2022/04/10 05:45:12;;;;;;;7.55;1.20;;;3.00;99.90;;;;;;5036813;28;20490;-93
2022/04/10 05:47:39;;;;;;;4.90;0.85;;;3.00;99.90;;;;;;5037000;28;20533;-93
2022/04/10 05:50:07;;;;;;;5.72;1.00;;;3.10;99.90;;;;;;5020260;28;20167;-90
2022/04/10 05:52:38;;;;;;;6.47;1.10;;;3.20;99.90;;;;;;5019792;28;20060;-93
2022/04/10 05:55:06;;;;;;;6.18;1.17;;;3.30;99.90;;;;;;5036433;28;20041;-92
2022/04/10 05:57:32;;;;;;;3.33;1.23;;;3.30;99.90;;;;;;5036236;28;20138;-92
2022/04/10 05:59:58;;;;;;;2.92;0.70;;;3.30;99.90;;;;;;5020385;28;20084;-92
2022/04/10 06:02:23;;;;;;;7.68;1.23;;;3.30;99.90;;;;;;5052783;28;20049;-92
2022/04/10 06:04:50;;;;;;;4.85;0.90;;;3.30;99.90;;;;;;5019925;28;20053;-92
2022/04/10 06:07:16;;;;;;;7.20;0.90;;;3.40;99.90;;;;;;5036386;28;20075;-91
2022/04/10 06:09:41;;;;;;;2.60;0.80;;;3.50;99.90;;;;;;5035959;28;20044;-90
2022/04/10 06:12:08;;;;;;;4.75;0.90;;;3.50;99.90;;;;;;5036705;28;20052;-90
2022/04/10 06:14:33;;;;;;;5.22;1.10;;;3.60;99.90;;;;;;5019757;28;20041;-92
2022/04/10 06:16:59;;;;;;;4.47;1.13;;;3.60;99.90;;;;;;5019516;28;20060;-91
2022/04/10 06:19:25;;;;;;;3.25;0.90;;;3.50;99.90;;;;;;5052760;28;20045;-92
2022/04/10 06:21:50;;;;;;;4.03;1.00;;;3.50;99.90;;;;;;5019400;28;20132;-91
2022/04/10 06:24:16;;;;;;;5.85;1.00;;;3.40;99.90;;;;;;5035885;28;20041;-92
2022/04/10 06:26:44;;;;;;;3.60;0.90;;;3.50;99.90;;;;;;5019619;28;20383;-91
2022/04/10 06:29:10;;;;;;;3.92;0.95;;;3.40;99.90;;;;;;5052510;28;20132;-91
2022/04/10 06:31:35;;;;;;;4.22;0.93;;;3.50;99.90;;;;;;5035882;28;20045;-92
2022/04/10 06:34:01;;;;;;;4.47;0.90;;;3.60;99.90;;;;;;5035864;28;20080;-91
2022/04/10 06:36:27;;;;;;;3.78;1.00;;;3.70;99.90;;;;;;5019017;28;20083;-92
2022/04/10 06:38:53;;;;;;;4.13;0.90;;;3.80;99.90;;;;;;5019161;28;20139;-90
2022/04/10 06:41:18;;;;;;;4.50;0.98;;;3.90;99.90;;;;;;5034739;28;20049;-92
2022/04/10 06:43:44;;;;;;;4.97;1.08;;;4.00;99.90;;;;;;5052427;28;20052;-91
2022/04/10 06:46:10;;;;;;;6.32;1.23;;;4.00;99.90;;;;;;5035705;28;20056;-91
2022/04/10 06:48:36;;;;;;;4.25;1.00;;;4.00;99.90;;;;;;5035581;28;20048;-91
2022/04/10 06:51:05;;;;;;;6.70;0.80;;;4.10;99.90;;;;;;5052635;28;20045;-91
2022/04/10 06:53:31;;;;;;;5.93;1.42;;;4.20;99.90;;;;;;5035358;28;20077;-91
2022/04/10 06:55:57;;;;;;;6.68;1.17;;;4.10;99.90;;;;;;5052038;28;20084;-90
2022/04/10 06:58:22;;;;;;;5.88;1.15;;;4.20;99.90;;;;;;5018667;28;20045;-91
2022/04/10 07:00:52;;;;;;;13.52;1.27;;;4.60;99.90;;;;;;5018387;28;20056;-92
2022/04/10 07:03:18;;;;;;;5.45;1.00;;;4.20;99.90;;;;;;5035358;28;20053;-90
2022/04/10 07:05:44;;;;;;;5.65;1.58;;;4.20;99.90;;;;;;5034993;28;20128;-91
2022/04/10 07:08:10;;;;;;;5.63;1.08;;;4.30;99.90;;;;;;5051726;28;20083;-90
2022/04/10 07:10:37;;;;;;;7.25;1.17;;;4.40;99.90;;;;;;5034964;28;20518;-89
2022/04/10 07:13:03;;;;;;;8.15;0.70;;;4.40;99.90;;;;;;5035566;28;20410;-90
2022/04/10 07:15:29;;;;;;;4.00;0.90;;;4.50;99.90;;;;;;5034886;28;20402;-91
2022/04/10 07:17:56;;;;;;;10.77;1.20;;;4.60;99.90;;;;;;5019371;28;20131;-90
2022/04/10 07:20:23;;;;;;;6.97;1.17;;;4.60;99.90;;;;;;5051922;28;20500;-92
2022/04/10 07:25:33;;;;;;;6.57;0.80;;;4.80;99.90;;;;;;5034993;28;20057;-87
2022/04/10 07:27:59;;;;;;;6.32;1.02;;;4.90;99.90;;;;;;5035201;28;20037;-89
2022/04/10 07:30:24;;;;;;;7.75;0.95;;;5.00;99.90;;;;;;5034678;28;20076;-89
2022/04/10 07:32:54;;;;;;;5.57;0.75;;;5.10;99.90;;;;;;5034640;28;20130;-90
2022/04/10 07:35:21;;;;;;;8.63;1.33;;;5.20;99.90;;;;;;5017712;28;20092;-90
2022/04/10 07:37:47;;;;;;;12.05;1.23;;;5.30;99.90;;;;;;5051434;28;20045;-91
2022/04/10 07:40:14;;;;;;;8.10;1.63;;;5.50;99.90;;;;;;5018117;28;20135;-90
2022/04/10 07:42:43;;;;;;;7.05;1.10;;;5.70;99.90;;;;;;5018336;28;20044;-87
2022/04/10 07:47:25;;;;;;;7.40;1.42;;;5.90;99.90;;;;;;5018214;28;20459;-88
2022/04/10 07:47:58;;;;;;;6.22;1.10;;;6.10;99.90;;;;;;5034554;28;20057;-89
2022/04/10 07:50:24;;;;;;;7.53;1.38;;;6.60;99.90;;;;;;5034386;28;20045;-89
2022/04/10 07:52:50;;;;;;;10.00;1.27;;;6.80;99.90;;;;;;5020768;28;20052;-90
2022/04/10 07:55:16;;;;;;;5.80;1.35;;;6.80;99.90;;;;;;5038776;28;20045;-90
2022/04/10 07:57:41;;;;;;;9.02;1.45;;;6.80;99.90;;;;;;5021209;28;20060;-89
2022/04/10 08:00:08;;;;;;;5.50;1.40;;;6.80;99.90;;;;;;5021504;28;20442;-90
2022/04/10 08:02:33;;;;;;;4.82;1.05;;;6.80;99.90;;;;;;5038006;28;20063;-89
2022/04/10 08:04:59;;;;;;;6.75;1.35;;;6.70;99.90;;;;;;5055034;28;20045;-90
2022/04/10 08:07:25;;;;;;;12.77;1.50;;;6.70;99.90;;;;;;5037640;28;20037;-90
2022/04/10 08:09:50;;;;;;;6.97;1.00;;;6.60;99.90;;;;;;5037942;28;20041;-91
2022/04/10 08:12:16;;;;;;;7.03;1.20;;;6.50;99.90;;;;;;5054935;28;20537;-91
2022/04/10 08:14:43;;;;;;;8.07;1.23;;;6.40;99.90;;;;;;5021863;28;20052;-90
2022/04/10 08:17:11;;;;;;;7.47;1.55;;;6.40;99.90;;;;;;5054362;28;20131;-90
2022/04/10 08:19:38;;;;;;;11.50;1.90;;;6.40;99.90;;;;;;5038015;28;20084;-90
2022/04/10 08:22:04;;;;;;;6.78;1.30;;;6.60;99.90;;;;;;5021202;28;20048;-90
2022/04/10 08:24:30;;;;;;;9.23;1.60;;;7.20;99.90;;;;;;5037631;28;20045;-90
2022/04/10 08:26:55;;;;;;;9.00;1.80;;;7.60;99.90;;;;;;5021037;28;20457;-88
2022/04/10 08:29:21;;;;;;;11.70;1.77;;;7.90;99.90;;;;;;5020863;28;20099;-89
2022/04/10 08:31:47;;;;;;;13.65;1.50;;;8.20;99.90;;;;;;5037380;28;20164;-89
2022/04/10 08:34:13;;;;;;;8.90;1.67;;;8.60;99.90;;;;;;5037530;28;20118;-89
2022/04/10 08:36:39;;;;;;;11.70;1.73;;;8.90;99.90;;;;;;5020651;28;20041;-88
2022/04/10 08:39:06;;;;;;;8.98;1.55;;;9.10;99.90;;;;;;5037563;28;20048;-91
2022/04/10 08:41:35;;;;;;;9.52;1.60;;;9.30;99.90;;;;;;5037665;28;20051;-90
2022/04/10 08:44:02;;;;;;;6.35;1.40;;;9.90;99.90;;;;;;5020526;28;20509;-90
2022/04/10 08:46:29;;;;;;;6.00;1.25;;;10.40;99.90;;;;;;5020816;28;20059;-90
2022/04/10 08:48:57;;;;;;;8.10;1.38;;;10.40;99.90;;;;;;5037296;28;20060;-89
2022/04/10 08:51:28;;;;;;;11.27;1.92;;;10.20;99.90;;;;;;5037051;28;20045;-90
2022/04/10 08:53:55;;;;;;;6.53;1.35;;;10.80;99.90;;;;;;5037453;28;20045;-90
2022/04/10 08:56:22;;;;;;;10.05;1.20;;;11.20;99.90;;;;;;5036764;28;20083;-89
2022/04/10 08:58:50;;;;;;;9.10;1.50;;;10.80;99.90;;;;;;5036747;28;20056;-88
2022/04/10 09:01:22;;;;;;;5.43;1.33;;;10.30;99.90;;;;;;5019817;28;20413;-88
2022/04/10 09:03:49;;;;;;;6.25;1.08;;;9.50;99.90;;;;;;5019645;28;20163;-90
2022/04/10 09:06:15;;;;;;;9.30;1.40;;;9.00;99.90;;;;;;5054319;28;20060;-89
2022/04/10 09:08:43;;;;;;;7.65;1.50;;;8.60;99.90;;;;;;5020526;28;20045;-92
2022/04/10 09:11:10;;;;;;;6.05;1.30;;;9.10;99.90;;;;;;5053502;28;20056;-91
2022/04/10 09:13:46;;;;;;;9.35;1.60;;;10.60;99.90;;;;;;5036851;28;20049;-90
2022/04/10 09:16:19;;;;;;;7.00;1.35;;;11.80;99.90;;;;;;5020179;28;20076;-89
2022/04/10 09:18:55;;;;;;;7.18;1.10;;;13.30;99.90;;;;;;5036390;28;20045;-88
2022/04/10 09:21:25;;;;;;;7.05;1.60;;;14.60;99.90;;;;;;5020118;28;20399;-91
2022/04/10 09:24:00;;;;;;;7.43;1.20;;;15.00;90.60;;;;;;5036851;28;20041;-89
2022/04/10 09:26:27;;;;;;;7.78;1.50;;;14.30;91.00;;;;;;5019948;28;20053;-89
2022/04/10 09:28:53;;;;;;;7.80;1.48;;;12.90;99.30;;;;;;5036714;28;20045;-89
2022/04/10 09:31:26;;;;;;;8.13;1.45;;;11.80;99.90;;;;;;5036314;28;20052;-90
2022/04/10 09:33:53;;;;;;;11.43;1.55;;;10.70;99.90;;;;;;5019885;28;20044;-90
2022/04/10 09:36:43;;;;;;;8.52;1.38;;;10.20;99.90;;;;;;5036470;28;20048;-91
2022/04/10 09:39:08;;;;;;;6.88;1.42;;;10.30;99.90;;;;;;5020031;28;20045;-91
2022/04/10 09:41:35;;;;;;;7.28;1.33;;;11.70;99.90;;;;;;5036297;28;20052;-89
2022/04/10 09:44:11;;;;;;;6.75;1.45;;;13.00;95.60;;;;;;5036240;28;20049;-90
2022/04/10 09:46:37;;;;;;;6.20;1.42;;;14.30;84.30;;;;;;5035984;28;20123;-89
2022/04/10 09:49:05;;;;;;;4.22;1.00;;;15.40;78.10;;;;;;5036145;28;20124;-91
2022/04/10 09:51:30;;;;;;;6.90;1.33;;;15.50;69.70;;;;;;5036022;28;20143;-91
2022/04/10 09:54:06;;;;;;;7.25;1.30;;;14.70;78.60;;;;;;5019543;28;20140;-90
2022/04/10 09:56:32;;;;;;;6.32;1.50;;;15.30;78.30;;;;;;5035719;28;20483;-91
2022/04/10 09:59:01;;;;;;;6.05;1.25;;;14.60;80.70;;;;;;5035458;28;20454;-91
2022/04/10 10:01:31;;;;;;;9.35;1.52;;;13.40;89.10;;;;;;5019723;28;20045;-90
2022/04/10 10:03:57;;;;;;;7.32;1.75;;;12.40;93.90;;;;;;5035910;28;20059;-91
2022/04/10 10:06:24;;;;;;;8.30;1.50;;;11.60;97.00;;;;;;5019452;28;20394;-91
2022/04/10 10:08:50;;;;;;;7.75;1.58;;;11.30;98.60;;;;;;5035877;28;20060;-90
2022/04/10 10:11:17;;;;;;;9.35;1.42;;;11.40;98.10;;;;;;5035930;28;20136;-91
2022/04/10 10:13:43;;;;;;;6.82;1.20;;;12.60;96.90;;;;;;5019245;28;20041;-90
2022/04/10 10:16:10;;;;;;;4.72;1.20;;;14.00;86.80;;;;;;5019222;28;20084;-89
2022/04/10 10:18:36;;;;;;;7.40;1.33;;;15.50;75.30;;;;;;5035508;28;20060;-90
2022/04/10 10:21:03;;;;;;;6.65;1.63;;;16.70;65.80;;;;;;5035678;28;20448;-90
2022/04/10 10:23:29;;;;;;;6.45;1.65;;;17.00;62.00;;;;;;5018933;28;20045;-91
2022/04/10 10:26:33;;;;;;;3.65;1.10;;;17.40;61.20;;;;;;5019150;28;20041;-90
2022/04/10 10:29:24;;;;;;;6.10;1.20;;;17.10;57.60;;;;;;5018855;28;20075;-91
2022/04/10 10:32:02;;;;;;;8.80;1.55;;;15.70;61.40;;;;;;5035434;28;20049;-90
2022/04/10 10:34:30;;;;;;;6.85;1.65;;;14.30;69.70;;;;;;5019002;28;20051;-92
2022/04/10 10:36:57;;;;;;;7.10;1.50;;;13.50;76.80;;;;;;5036463;28;20041;-91
2022/04/10 10:39:23;;;;;;;6.65;1.02;;;14.40;73.10;;;;;;5052241;28;20138;-90
2022/04/10 10:41:52;;;;;;;8.07;1.00;;;14.70;69.60;;;;;;5018229;28;20103;-89
2022/04/10 10:44:27;;;;;;;7.15;1.30;;;13.80;66.80;;;;;;5018690;28;20052;-87
2022/04/10 10:47:02;;;;;;;5.10;1.33;;;12.90;74.20;;;;;;5018840;28;20048;-90
2022/04/10 10:49:29;;;;;;;4.82;0.90;;;13.10;76.80;;;;;;5035448;28;20076;-89
2022/04/10 10:51:56;;;;;;;5.00;0.93;;;14.70;71.90;;;;;;5019061;28;20142;-90
2022/04/10 10:54:24;;;;;;;3.80;1.10;;;16.20;62.40;;;;;;5018723;28;20114;-90
2022/04/10 10:56:50;;;;;;;4.32;1.10;;;15.70;58.00;;;;;;5018719;28;20548;-90
2022/04/10 10:59:41;;;;;;;6.65;1.25;;;14.80;60.20;;;;;;5035368;28;20048;-89
2022/04/10 11:02:07;;;;;;;5.88;1.23;;;13.80;66.30;;;;;;5051974;28;20514;-88
2022/04/10 11:04:49;;;;;;;6.00;1.30;;;12.50;79.40;;;;;;5017793;28;20132;-90
2022/04/10 11:07:18;;;;;;;5.82;1.20;;;11.50;91.10;;;;;;5018728;28;20119;-90
2022/04/10 11:09:58;;;;;;;5.25;1.15;;;10.60;97.10;;;;;;5018355;28;20052;-90
2022/04/10 11:12:34;;;;;;;10.48;1.42;;;10.20;97.80;;;;;;5035127;28;20053;-89
2022/04/10 11:15:21;;;;;;;7.00;1.08;;;11.20;96.20;;;;;;5035146;28;20049;-91
2022/04/10 11:17:53;;;;;;;4.35;1.00;;;13.20;90.90;;;;;;5052742;28;20053;-90
2022/04/10 11:20:27;;;;;;;6.63;1.23;;;14.90;71.00;;;;;;5018584;28;20065;-91
2022/04/10 11:22:53;;;;;;;5.32;1.13;;;16.10;64.90;;;;;;5018642;28;20051;-90
2022/04/10 11:25:27;;;;;;;5.70;0.98;;;17.60;61.10;;;;;;5035212;28;20048;-91
2022/04/10 11:28:04;;;;;;;8.13;1.30;;;17.80;54.00;;;;;;5021988;28;20135;-92
2022/04/10 11:30:34;;;;;;;4.82;0.85;;;16.70;57.30;;;;;;5022502;28;20431;-92
2022/04/10 11:33:00;;;;;;;4.43;0.82;;;15.60;59.50;;;;;;5022936;28;20049;-92
2022/04/10 11:35:33;;;;;;;7.82;2.38;;;14.20;62.70;;;;;;5022480;28;20102;-92
2022/04/10 11:38:00;;;;;;;6.60;1.48;;;14.00;67.50;;;;;;5022298;28;20162;-90
2022/04/10 11:40:28;;;;;;;8.10;1.70;;;14.90;64.10;;;;;;5038924;28;20053;-91
2022/04/10 11:42:56;;;;;;;4.45;1.15;;;15.60;58.90;;;;;;5038878;28;20102;-90
2022/04/10 11:45:29;;;;;;;3.97;1.17;;;16.20;58.00;;;;;;5022312;28;20041;-89
2022/04/10 11:47:55;;;;;;;6.43;1.25;;;17.00;55.20;;;;;;5022122;28;20041;-93
2022/04/10 11:50:22;;;;;;;6.85;1.33;;;17.50;54.20;;;;;;5022490;28;20517;-91
2022/04/10 11:53:11;;;;;;;7.57;1.67;;;17.60;52.00;;;;;;5022403;28;20048;-92
2022/04/10 11:55:39;;;;;;;7.43;1.60;;;17.40;50.30;;;;;;5038145;28;20103;-94
2022/04/10 11:58:16;;;;;;;7.35;1.10;;;16.70;52.80;;;;;;5021931;28;20057;-93
2022/04/10 12:00:48;;;;;;;5.63;1.35;;;17.00;54.20;;;;;;5021647;28;20044;-91
2022/04/10 12:03:14;;;;;;;6.70;1.30;;;17.80;53.60;;;;;;5039230;28;20048;-93
2022/04/10 12:05:40;;;;;;;5.40;1.15;;;18.50;52.90;;;;;;5040314;28;20048;-93
2022/04/10 12:08:06;;;;;;;7.25;1.90;;;19.00;52.40;;;;;;5022695;28;20049;-93
2022/04/10 12:10:33;;;;;;;4.82;1.30;;;18.30;51.10;;;;;;5022663;28;20049;-93
2022/04/10 12:12:59;;;;;;;6.63;1.25;;;17.00;53.00;;;;;;5022682;28;20083;-92
2022/04/10 12:15:28;;;;;;;5.45;1.27;;;15.90;54.70;;;;;;5038822;28;20495;-93
2022/04/10 12:18:08;;;;;;;14.00;5.72;;;15.40;55.60;;;;;;5039465;28;20052;-94
2022/04/10 12:20:39;;;;;;;11.25;4.10;;;14.70;58.80;;;;;;5039135;28;20083;-91
2022/04/10 12:23:34;;;;;;;9.80;3.17;;;14.10;60.70;;;;;;5038230;28;20049;-92
2022/04/10 12:26:02;;;;;;;5.03;1.30;;;14.30;60.40;;;;;;4977701;28;20145;-91
2022/04/10 12:28:29;;;;;;;4.38;1.30;;;15.20;59.30;;;;;;4994522;28;20054;-91
2022/04/10 12:31:01;;;;;;;5.75;1.42;;;15.70;56.90;;;;;;4978604;28;20093;-90
2022/04/10 12:33:30;;;;;;;6.68;1.02;;;15.70;58.40;;;;;;4978001;28;20082;-91
2022/04/10 12:35:56;;;;;;;8.90;1.73;;;16.40;57.10;;;;;;4978433;28;20507;-94
2022/04/10 12:38:28;;;;;;;25.15;12.40;;;16.20;55.60;;;;;;4960470;28;20090;-92
2022/04/10 12:41:03;;;;;;;6.20;2.00;;;15.50;55.00;;;;;;4978092;28;20050;-92
2022/04/10 12:43:29;;;;;;;7.32;1.60;;;14.60;57.90;;;;;;4962499;28;20455;-91
2022/04/10 12:46:08;;;;;;;9.52;1.70;;;14.30;59.40;;;;;;4978389;28;20050;-91
2022/04/10 12:48:34;;;;;;;7.97;1.50;;;14.20;59.60;;;;;;4994056;28;20051;-92
2022/04/10 12:51:05;;;;;;;7.22;1.45;;;14.50;62.80;;;;;;4977882;28;20054;-90
2022/04/10 12:53:30;;;;;;;5.23;1.57;;;15.00;61.40;;;;;;4993981;28;20047;-88
2022/04/10 12:55:56;;;;;;;5.78;1.20;;;15.90;58.90;;;;;;4978274;28;20065;-91